Terminal Aerodrome Forecast
Issued by NWS

Home | Current Version | Previous Version | Text Only | Print | Product List | Glossary On
Versions: 1 2 3 4 5 6 7 8 9 10 11 12 13 14 15 16 17 18 19 20
000
FTUS44 KTSA 012000 AAB
TAFXNA
TAF AMD
KXNA 012026Z 0120/0218 18012KT P6SM VCTS SCT035CB BKN045
     FM020200 17014KT P6SM SCT035 BKN250
     FM020900 18012KT P6SM BKN015
      TEMPO 0210/0214 BKN009=

USA.gov is the U.S. government's official web portal to all federal, state and local government web resources and services.